Sumburgh, United Kingdom
Current Conditions -  °F | °C
As of 8:20 AM on Tuesday 21 Oct 2014 (Local Time) from EGPB Reporting Station
Light Rain Light Rain  
Wind Chill: 54°   Ceiling: 500
Heat Index: 54°   Visibility: 3mi
Dew Point: 52°   Wind: 21mph
Humidity: 94%   Direction: 150°SSE
Pressure: 28.91"   Gusts: NA
Location:  59.87°N, 1.29°W
Report Text: EGPB 210720Z 15018KT 5000 -RA BKN005 12/11 Q0979 TEMPO 2500 RA
Loading
Personal Weather Stations






























Interactive Weather Map
Tropical Storm Tracking
New forecast layout! Learn more

10-Day Weather Forecast

Advertisements
Track Severe Weather on mobile